History for KNJHOBOK40

Lower Manhattan, Hoboken, NJ — Current Conditions
Daily Summary for June 28, 2017
  Current: High: Low: Average:
Temperature: 67.6°F 67.6°F 61.9°F 64.8°F
Dew Point: 50.1°F 50.1°F 46.9°F 47.9°F
Humidity: 53% 60% 50% 55%
Wind Speed: - 0.0mph - 0.0mph
Wind Gust: - 0.0mph - -
Wind: North - - North
Pressure: 29.90in 29.90in 29.82in -
Precipitation: 0.00in      
Statistics for the rest of the month
    High: Low: Average:
Temperature:   106.3°F 52.2°F 75.3°F
Dew Point:   91.0°F 31.2°F 57.0°F
Humidity:   100.0% 19.0% 59.2%
Wind Speed:   0.0mph from the North - 0.0mph
Wind Gust:   0.0mph from the North - -
Wind:   - - North
Pressure:   29.90in 29.37in -
Precipitation:   0.00in    
KNJHOBOK40 Weather Graph
Tabular Data for June 28, 2017
Time Temp. Dew Point Pressure Wind Gust Humidity Rainfall
00:06 67.5°F 48.9°F 29.82in - 51% -
00:16 67.5°F 49.5°F 29.83in - 52% -
00:26 67.3°F 48.8°F 29.83in - 51% -
00:36 67.1°F 48.1°F 29.83in - 50% -
00:46 66.7°F 48.3°F 29.83in - 51% -
01:06 66.2°F 47.8°F 29.83in - 51% -
01:17 66.0°F 48.1°F 29.83in - 52% -
01:27 65.7°F 47.8°F 29.84in - 52% -
01:37 65.3°F 47.9°F 29.84in - 53% -
01:47 65.1°F 48.3°F 29.84in - 54% -
02:07 64.8°F 47.9°F 29.84in - 54% -
02:17 64.4°F 47.6°F 29.84in - 54% -
02:27 64.2°F 47.9°F 29.85in - 55% -
02:37 64.0°F 47.3°F 29.85in - 54% -
02:48 63.9°F 47.6°F 29.85in - 55% -
03:08 63.5°F 47.7°F 29.86in - 56% -
03:18 63.3°F 47.5°F 29.86in - 56% -
03:28 63.1°F 47.4°F 29.86in - 56% -
03:38 63.1°F 47.4°F 29.86in - 56% -
03:48 63.0°F 47.2°F 29.86in - 56% -
04:08 62.8°F 47.0°F 29.87in - 56% -
04:18 62.6°F 46.9°F 29.87in - 56% -
04:29 62.6°F 47.3°F 29.87in - 57% -
04:39 62.4°F 47.2°F 29.88in - 57% -
04:49 62.2°F 47.5°F 29.88in - 58% -
05:26 62.1°F 47.3°F 29.89in - 58% -
05:29 62.1°F 47.7°F 29.89in - 59% -
05:49 61.9°F 48.0°F 29.89in - 60% -
05:56 61.9°F 48.0°F 29.89in - 60% -
06:10 65.3°F 48.9°F 29.90in - 55% -
06:20 67.6°F 50.1°F 29.90in - 53% -
Comma Delimited File
Powered by Weather Underground, Inc.